sensor_id;sensor_type;location;lat;lon;timestamp;temperature;humidity
46482;DHT22;32193;51.446;6.792;2022-11-03T00:02:20;12.40;99.90
46482;DHT22;32193;51.446;6.792;2022-11-03T00:04:45;12.80;99.90
46482;DHT22;32193;51.446;6.792;2022-11-03T00:09:37;12.90;99.90
46482;DHT22;32193;51.446;6.792;2022-11-03T00:12:03;12.60;99.90
46482;DHT22;32193;51.446;6.792;2022-11-03T00:16:54;12.90;99.90
46482;DHT22;32193;51.446;6.792;2022-11-03T00:24:12;12.90;99.90
46482;DHT22;32193;51.446;6.792;2022-11-03T00:26:38;12.80;99.90
46482;DHT22;32193;51.446;6.792;2022-11-03T00:29:09;12.80;99.90
46482;DHT22;32193;51.446;6.792;2022-11-03T00:31:36;12.80;99.90
46482;DHT22;32193;51.446;6.792;2022-11-03T00:34:03;12.50;99.90
46482;DHT22;32193;51.446;6.792;2022-11-03T00:36:31;12.70;99.90
46482;DHT22;32193;51.446;6.792;2022-11-03T00:38:57;12.70;99.90
46482;DHT22;32193;51.446;6.792;2022-11-03T00:41:23;12.60;99.90
46482;DHT22;32193;51.446;6.792;2022-11-03T00:46:17;12.70;99.90
46482;DHT22;32193;51.446;6.792;2022-11-03T00:48:43;12.70;99.90
46482;DHT22;32193;51.446;6.792;2022-11-03T00:53:42;12.90;99.90
46482;DHT22;32193;51.446;6.792;2022-11-03T00:56:16;12.90;99.90
46482;DHT22;32193;51.446;6.792;2022-11-03T00:58:43;13.40;99.90
46482;DHT22;32193;51.446;6.792;2022-11-03T01:01:14;12.80;99.90
46482;DHT22;32193;51.446;6.792;2022-11-03T01:03:41;12.80;99.90
46482;DHT22;32193;51.446;6.792;2022-11-03T01:06:27;12.80;99.90
46482;DHT22;32193;51.446;6.792;2022-11-03T01:09:12;12.80;99.90
46482;DHT22;32193;51.446;6.792;2022-11-03T01:11:37;12.60;99.90
46482;DHT22;32193;51.446;6.792;2022-11-03T01:14:11;12.70;99.90
46482;DHT22;32193;51.446;6.792;2022-11-03T01:16:37;12.70;99.90
46482;DHT22;32193;51.446;6.792;2022-11-03T01:19:03;12.50;99.90
46482;DHT22;32193;51.446;6.792;2022-11-03T01:21:29;13.00;99.90
46482;DHT22;32193;51.446;6.792;2022-11-03T01:23:55;12.80;99.90
46482;DHT22;32193;51.446;6.792;2022-11-03T01:26:20;12.60;99.90
46482;DHT22;32193;51.446;6.792;2022-11-03T01:28:47;12.70;99.90
46482;DHT22;32193;51.446;6.792;2022-11-03T01:31:18;12.70;99.90
46482;DHT22;32193;51.446;6.792;2022-11-03T01:33:45;12.40;99.90
46482;DHT22;32193;51.446;6.792;2022-11-03T01:36:11;12.40;99.90
46482;DHT22;32193;51.446;6.792;2022-11-03T01:38:37;12.20;99.90
46482;DHT22;32193;51.446;6.792;2022-11-03T01:41:06;12.40;99.90
46482;DHT22;32193;51.446;6.792;2022-11-03T01:43:32;12.40;99.90
46482;DHT22;32193;51.446;6.792;2022-11-03T01:46:13;12.10;99.90
46482;DHT22;32193;51.446;6.792;2022-11-03T01:48:57;12.30;99.90
46482;DHT22;32193;51.446;6.792;2022-11-03T01:51:25;12.20;99.90
46482;DHT22;32193;51.446;6.792;2022-11-03T01:53:52;12.30;99.90
46482;DHT22;32193;51.446;6.792;2022-11-03T01:56:20;12.40;99.90
46482;DHT22;32193;51.446;6.792;2022-11-03T01:58:47;12.40;99.90
46482;DHT22;32193;51.446;6.792;2022-11-03T02:01:14;12.30;99.90
46482;DHT22;32193;51.446;6.792;2022-11-03T02:03:44;12.20;99.90
46482;DHT22;32193;51.446;6.792;2022-11-03T02:11:21;12.30;99.90
46482;DHT22;32193;51.446;6.792;2022-11-03T02:14:12;12.70;99.90
46482;DHT22;32193;51.446;6.792;2022-11-03T02:16:40;12.40;99.90
46482;DHT22;32193;51.446;6.792;2022-11-03T02:19:34;12.40;99.90
46482;DHT22;32193;51.446;6.792;2022-11-03T02:22:03;12.60;99.90
46482;DHT22;32193;51.446;6.792;2022-11-03T02:24:52;12.20;99.90
46482;DHT22;32193;51.446;6.792;2022-11-03T02:27:19;12.30;99.90
46482;DHT22;32193;51.446;6.792;2022-11-03T02:32:28;12.40;99.90
46482;DHT22;32193;51.446;6.792;2022-11-03T02:35:10;12.20;99.90
46482;DHT22;32193;51.446;6.792;2022-11-03T02:37:42;12.30;99.90
46482;DHT22;32193;51.446;6.792;2022-11-03T02:40:17;12.00;99.90
46482;DHT22;32193;51.446;6.792;2022-11-03T02:42:47;12.70;99.90
46482;DHT22;32193;51.446;6.792;2022-11-03T02:45:17;12.80;99.90
46482;DHT22;32193;51.446;6.792;2022-11-03T02:47:44;12.40;99.90
46482;DHT22;32193;51.446;6.792;2022-11-03T02:50:11;12.40;99.90
46482;DHT22;32193;51.446;6.792;2022-11-03T02:52:40;12.10;99.90
46482;DHT22;32193;51.446;6.792;2022-11-03T02:55:17;12.30;99.90
46482;DHT22;32193;51.446;6.792;2022-11-03T03:00:54;12.30;99.90
46482;DHT22;32193;51.446;6.792;2022-11-03T03:03:37;12.50;99.90
46482;DHT22;32193;51.446;6.792;2022-11-03T03:06:08;12.40;99.90
46482;DHT22;32193;51.446;6.792;2022-11-03T03:08:38;12.50;99.90
46482;DHT22;32193;51.446;6.792;2022-11-03T03:11:07;12.40;99.90
46482;DHT22;32193;51.446;6.792;2022-11-03T03:13:36;12.10;99.90
46482;DHT22;32193;51.446;6.792;2022-11-03T03:16:22;12.50;99.90
46482;DHT22;32193;51.446;6.792;2022-11-03T03:21:43;12.20;99.90
46482;DHT22;32193;51.446;6.792;2022-11-03T03:24:42;12.40;99.90
46482;DHT22;32193;51.446;6.792;2022-11-03T03:27:11;12.20;99.90
46482;DHT22;32193;51.446;6.792;2022-11-03T03:29:45;12.60;99.90
46482;DHT22;32193;51.446;6.792;2022-11-03T03:32:15;12.30;99.90
46482;DHT22;32193;51.446;6.792;2022-11-03T03:34:44;12.50;99.90
46482;DHT22;32193;51.446;6.792;2022-11-03T03:37:13;12.50;99.90
46482;DHT22;32193;51.446;6.792;2022-11-03T03:39:43;12.80;99.90
46482;DHT22;32193;51.446;6.792;2022-11-03T03:42:11;12.50;99.90
46482;DHT22;32193;51.446;6.792;2022-11-03T03:44:40;12.30;99.90
46482;DHT22;32193;51.446;6.792;2022-11-03T03:47:14;12.90;99.90
46482;DHT22;32193;51.446;6.792;2022-11-03T03:52:08;12.70;99.90
46482;DHT22;32193;51.446;6.792;2022-11-03T03:54:34;12.40;99.90
46482;DHT22;32193;51.446;6.792;2022-11-03T03:57:02;12.60;99.90
46482;DHT22;32193;51.446;6.792;2022-11-03T03:59:28;13.00;99.90
46482;DHT22;32193;51.446;6.792;2022-11-03T04:01:53;12.00;99.90
46482;DHT22;32193;51.446;6.792;2022-11-03T04:06:45;12.80;99.90
46482;DHT22;32193;51.446;6.792;2022-11-03T04:11:37;12.60;99.90
46482;DHT22;32193;51.446;6.792;2022-11-03T04:17:17;12.60;99.90
46482;DHT22;32193;51.446;6.792;2022-11-03T04:20:02;12.50;99.90
46482;DHT22;32193;51.446;6.792;2022-11-03T04:22:46;12.60;99.90
46482;DHT22;32193;51.446;6.792;2022-11-03T04:27:39;12.40;99.90
46482;DHT22;32193;51.446;6.792;2022-11-03T04:32:35;12.70;99.90
46482;DHT22;32193;51.446;6.792;2022-11-03T04:37:27;12.70;99.90
46482;DHT22;32193;51.446;6.792;2022-11-03T04:39:57;12.80;99.90
46482;DHT22;32193;51.446;6.792;2022-11-03T04:44:50;12.80;99.90
46482;DHT22;32193;51.446;6.792;2022-11-03T04:47:17;12.50;99.90
46482;DHT22;32193;51.446;6.792;2022-11-03T04:49:46;12.60;99.90
46482;DHT22;32193;51.446;6.792;2022-11-03T04:52:18;12.70;99.90
46482;DHT22;32193;51.446;6.792;2022-11-03T04:54:46;12.80;99.90
46482;DHT22;32193;51.446;6.792;2022-11-03T04:57:14;12.60;99.90
46482;DHT22;32193;51.446;6.792;2022-11-03T04:59:41;12.90;99.90
46482;DHT22;32193;51.446;6.792;2022-11-03T05:02:15;12.60;99.90
46482;DHT22;32193;51.446;6.792;2022-11-03T05:04:42;12.80;99.90
46482;DHT22;32193;51.446;6.792;2022-11-03T05:07:33;12.30;99.90
46482;DHT22;32193;51.446;6.792;2022-11-03T05:10:00;12.90;99.90
46482;DHT22;32193;51.446;6.792;2022-11-03T05:12:27;12.70;99.90
46482;DHT22;32193;51.446;6.792;2022-11-03T05:14:53;12.70;99.90
46482;DHT22;32193;51.446;6.792;2022-11-03T05:17:25;12.70;99.90
46482;DHT22;32193;51.446;6.792;2022-11-03T05:20:01;12.80;99.90
46482;DHT22;32193;51.446;6.792;2022-11-03T05:22:34;12.60;99.90
46482;DHT22;32193;51.446;6.792;2022-11-03T05:25:27;12.70;99.90
46482;DHT22;32193;51.446;6.792;2022-11-03T05:32:43;12.60;99.90
46482;DHT22;32193;51.446;6.792;2022-11-03T05:35:21;12.70;99.90
46482;DHT22;32193;51.446;6.792;2022-11-03T05:37:49;12.90;99.90
46482;DHT22;32193;51.446;6.792;2022-11-03T05:40:21;13.00;99.90
46482;DHT22;32193;51.446;6.792;2022-11-03T05:42:57;12.80;99.90
46482;DHT22;32193;51.446;6.792;2022-11-03T05:45:33;13.10;99.90
46482;DHT22;32193;51.446;6.792;2022-11-03T05:48:01;12.70;99.90
46482;DHT22;32193;51.446;6.792;2022-11-03T05:50:28;12.90;99.90
46482;DHT22;32193;51.446;6.792;2022-11-03T05:53:03;13.20;99.90
46482;DHT22;32193;51.446;6.792;2022-11-03T05:55:33;12.90;99.90
46482;DHT22;32193;51.446;6.792;2022-11-03T05:58:10;13.10;99.90
46482;DHT22;32193;51.446;6.792;2022-11-03T06:00:39;13.20;99.90
46482;DHT22;32193;51.446;6.792;2022-11-03T06:03:06;13.10;99.90
46482;DHT22;32193;51.446;6.792;2022-11-03T06:08:09;13.20;99.90
46482;DHT22;32193;51.446;6.792;2022-11-03T06:10:39;13.10;99.90
46482;DHT22;32193;51.446;6.792;2022-11-03T06:15:45;13.20;99.90
46482;DHT22;32193;51.446;6.792;2022-11-03T06:18:28;13.40;99.90
46482;DHT22;32193;51.446;6.792;2022-11-03T06:20:57;13.30;99.90
46482;DHT22;32193;51.446;6.792;2022-11-03T06:23:24;13.10;99.90
46482;DHT22;32193;51.446;6.792;2022-11-03T06:25:51;12.90;99.90
46482;DHT22;32193;51.446;6.792;2022-11-03T06:28:35;13.00;99.90
46482;DHT22;32193;51.446;6.792;2022-11-03T06:31:05;13.20;99.90
46482;DHT22;32193;51.446;6.792;2022-11-03T06:36:36;13.10;99.90
46482;DHT22;32193;51.446;6.792;2022-11-03T06:39:21;13.00;99.90
46482;DHT22;32193;51.446;6.792;2022-11-03T06:41:48;13.00;99.90
46482;DHT22;32193;51.446;6.792;2022-11-03T06:44:25;13.00;99.90
46482;DHT22;32193;51.446;6.792;2022-11-03T06:46:59;13.00;99.90
46482;DHT22;32193;51.446;6.792;2022-11-03T06:49:31;13.40;99.90
46482;DHT22;32193;51.446;6.792;2022-11-03T06:57:36;13.00;99.90
46482;DHT22;32193;51.446;6.792;2022-11-03T07:00:22;13.20;99.90
46482;DHT22;32193;51.446;6.792;2022-11-03T07:05:44;13.30;99.90
46482;DHT22;32193;51.446;6.792;2022-11-03T07:08:31;13.00;99.90
46482;DHT22;32193;51.446;6.792;2022-11-03T07:11:10;13.10;99.90
46482;DHT22;32193;51.446;6.792;2022-11-03T07:16:11;13.40;99.90
46482;DHT22;32193;51.446;6.792;2022-11-03T07:18:41;13.20;99.90
46482;DHT22;32193;51.446;6.792;2022-11-03T07:21:36;13.40;99.90
46482;DHT22;32193;51.446;6.792;2022-11-03T07:24:23;13.10;99.90
46482;DHT22;32193;51.446;6.792;2022-11-03T07:27:06;13.70;99.90
46482;DHT22;32193;51.446;6.792;2022-11-03T07:29:35;13.40;99.90
46482;DHT22;32193;51.446;6.792;2022-11-03T07:32:01;13.70;99.90
46482;DHT22;32193;51.446;6.792;2022-11-03T07:34:31;13.70;99.90
46482;DHT22;32193;51.446;6.792;2022-11-03T07:36:58;14.00;99.90
46482;DHT22;32193;51.446;6.792;2022-11-03T07:39:33;13.90;99.90
46482;DHT22;32193;51.446;6.792;2022-11-03T07:42:08;13.50;99.90
46482;DHT22;32193;51.446;6.792;2022-11-03T07:47:05;13.90;99.90
46482;DHT22;32193;51.446;6.792;2022-11-03T07:49:35;14.00;99.90
46482;DHT22;32193;51.446;6.792;2022-11-03T07:54:32;14.60;99.90
46482;DHT22;32193;51.446;6.792;2022-11-03T07:57:21;14.40;99.90
46482;DHT22;32193;51.446;6.792;2022-11-03T07:59:50;14.10;99.90
46482;DHT22;32193;51.446;6.792;2022-11-03T08:02:29;14.70;99.90
46482;DHT22;32193;51.446;6.792;2022-11-03T08:04:55;14.50;99.90
46482;DHT22;32193;51.446;6.792;2022-11-03T08:07:22;14.90;99.90
46482;DHT22;32193;51.446;6.792;2022-11-03T08:09:48;14.60;99.90
46482;DHT22;32193;51.446;6.792;2022-11-03T08:14:40;14.50;99.90
46482;DHT22;32193;51.446;6.792;2022-11-03T08:19:32;14.30;99.90
46482;DHT22;32193;51.446;6.792;2022-11-03T08:24:23;14.60;99.90
46482;DHT22;32193;51.446;6.792;2022-11-03T08:34:10;14.10;99.90
46482;DHT22;32193;51.446;6.792;2022-11-03T08:36:36;14.00;99.90
46482;DHT22;32193;51.446;6.792;2022-11-03T08:39:02;14.70;99.90
46482;DHT22;32193;51.446;6.792;2022-11-03T08:41:28;14.40;99.90
46482;DHT22;32193;51.446;6.792;2022-11-03T08:46:19;14.30;99.90
46482;DHT22;32193;51.446;6.792;2022-11-03T08:51:12;14.10;99.90
46482;DHT22;32193;51.446;6.792;2022-11-03T08:53:38;14.50;99.90
46482;DHT22;32193;51.446;6.792;2022-11-03T08:58:30;14.50;99.90
46482;DHT22;32193;51.446;6.792;2022-11-03T09:00:56;14.50;99.90
46482;DHT22;32193;51.446;6.792;2022-11-03T09:03:22;14.50;99.90
46482;DHT22;32193;51.446;6.792;2022-11-03T09:05:48;14.70;99.90
46482;DHT22;32193;51.446;6.792;2022-11-03T09:08:13;14.50;99.90
46482;DHT22;32193;51.446;6.792;2022-11-03T09:10:39;14.50;99.90
46482;DHT22;32193;51.446;6.792;2022-11-03T09:13:05;14.40;99.90
46482;DHT22;32193;51.446;6.792;2022-11-03T09:15:30;14.80;99.90
46482;DHT22;32193;51.446;6.792;2022-11-03T09:17:56;14.60;99.90
46482;DHT22;32193;51.446;6.792;2022-11-03T09:20:22;15.10;99.90
46482;DHT22;32193;51.446;6.792;2022-11-03T09:22:47;15.40;99.90
46482;DHT22;32193;51.446;6.792;2022-11-03T09:25:13;15.30;99.90
46482;DHT22;32193;51.446;6.792;2022-11-03T09:30:05;14.90;99.90
46482;DHT22;32193;51.446;6.792;2022-11-03T09:32:32;15.10;99.90
46482;DHT22;32193;51.446;6.792;2022-11-03T09:34:58;15.30;99.90
46482;DHT22;32193;51.446;6.792;2022-11-03T09:44:42;15.60;99.90
46482;DHT22;32193;51.446;6.792;2022-11-03T09:47:10;15.30;99.90
46482;DHT22;32193;51.446;6.792;2022-11-03T09:54:30;15.60;99.90
46482;DHT22;32193;51.446;6.792;2022-11-03T09:56:59;15.50;99.90
46482;DHT22;32193;51.446;6.792;2022-11-03T09:59:29;15.30;99.90
46482;DHT22;32193;51.446;6.792;2022-11-03T10:04:25;15.20;99.90
46482;DHT22;32193;51.446;6.792;2022-11-03T10:06:54;15.60;99.90
46482;DHT22;32193;51.446;6.792;2022-11-03T10:09:20;15.60;99.90
46482;DHT22;32193;51.446;6.792;2022-11-03T10:14:15;15.70;99.90
46482;DHT22;32193;51.446;6.792;2022-11-03T10:16:41;15.30;99.90
46482;DHT22;32193;51.446;6.792;2022-11-03T10:19:10;15.30;99.90
46482;DHT22;32193;51.446;6.792;2022-11-03T10:29:04;15.60;99.90
46482;DHT22;32193;51.446;6.792;2022-11-03T10:31:38;16.20;99.90
46482;DHT22;32193;51.446;6.792;2022-11-03T10:34:51;15.70;99.90
46482;DHT22;32193;51.446;6.792;2022-11-03T10:42:05;15.60;99.90
46482;DHT22;32193;51.446;6.792;2022-11-03T10:47:00;15.80;99.90
46482;DHT22;32193;51.446;6.792;2022-11-03T10:49:33;15.80;99.90
46482;DHT22;32193;51.446;6.792;2022-11-03T10:52:18;15.90;99.90
46482;DHT22;32193;51.446;6.792;2022-11-03T10:54:45;16.00;99.90
46482;DHT22;32193;51.446;6.792;2022-11-03T11:02:20;15.90;99.90
46482;DHT22;32193;51.446;6.792;2022-11-03T11:04:56;16.20;99.90
46482;DHT22;32193;51.446;6.792;2022-11-03T11:07:29;16.40;99.90
46482;DHT22;32193;51.446;6.792;2022-11-03T11:10:07;16.40;99.90
46482;DHT22;32193;51.446;6.792;2022-11-03T11:12:35;16.70;99.90
46482;DHT22;32193;51.446;6.792;2022-11-03T11:15:03;16.60;99.90
46482;DHT22;32193;51.446;6.792;2022-11-03T11:17:43;16.60;99.90
46482;DHT22;32193;51.446;6.792;2022-11-03T11:22:48;16.80;99.90
46482;DHT22;32193;51.446;6.792;2022-11-03T11:37:52;17.00;99.90
46482;DHT22;32193;51.446;6.792;2022-11-03T11:48:32;17.20;99.90
46482;DHT22;32193;51.446;6.792;2022-11-03T11:50:58;17.40;99.90
46482;DHT22;32193;51.446;6.792;2022-11-03T11:53:25;17.40;99.90
46482;DHT22;32193;51.446;6.792;2022-11-03T12:03:24;16.60;99.90
46482;DHT22;32193;51.446;6.792;2022-11-03T12:05:50;16.60;99.90
46482;DHT22;32193;51.446;6.792;2022-11-03T12:08:17;16.70;99.90
46482;DHT22;32193;51.446;6.792;2022-11-03T12:10:58;16.60;99.90
46482;DHT22;32193;51.446;6.792;2022-11-03T12:13:53;16.70;99.90
46482;DHT22;32193;51.446;6.792;2022-11-03T12:16:34;16.80;99.90
46482;DHT22;32193;51.446;6.792;2022-11-03T12:19:32;16.20;99.90
46482;DHT22;32193;51.446;6.792;2022-11-03T12:21:59;16.30;99.90
46482;DHT22;32193;51.446;6.792;2022-11-03T12:29:17;16.00;99.90
46482;DHT22;32193;51.446;6.792;2022-11-03T12:36:35;16.60;99.90
46482;DHT22;32193;51.446;6.792;2022-11-03T12:39:00;16.60;99.90
46482;DHT22;32193;51.446;6.792;2022-11-03T12:43:52;16.20;99.90
46482;DHT22;32193;51.446;6.792;2022-11-03T12:46:20;16.80;99.90
46482;DHT22;32193;51.446;6.792;2022-11-03T12:51:14;16.60;99.90
46482;DHT22;32193;51.446;6.792;2022-11-03T12:53:40;17.00;99.90
46482;DHT22;32193;51.446;6.792;2022-11-03T12:56:07;16.50;99.90
46482;DHT22;32193;51.446;6.792;2022-11-03T12:58:33;16.50;99.90
46482;DHT22;32193;51.446;6.792;2022-11-03T13:00:59;16.70;99.90
46482;DHT22;32193;51.446;6.792;2022-11-03T13:03:25;16.70;99.90
46482;DHT22;32193;51.446;6.792;2022-11-03T13:08:17;16.50;99.90
46482;DHT22;32193;51.446;6.792;2022-11-03T13:10:42;16.70;99.90
46482;DHT22;32193;51.446;6.792;2022-11-03T13:13:08;16.70;99.90
46482;DHT22;32193;51.446;6.792;2022-11-03T13:22:51;16.60;99.90
46482;DHT22;32193;51.446;6.792;2022-11-03T13:25:17;16.30;99.90
46482;DHT22;32193;51.446;6.792;2022-11-03T13:27:43;16.10;99.90
46482;DHT22;32193;51.446;6.792;2022-11-03T13:30:09;16.20;99.90
46482;DHT22;32193;51.446;6.792;2022-11-03T13:35:02;16.30;99.90
46482;DHT22;32193;51.446;6.792;2022-11-03T13:37:28;16.20;99.90
46482;DHT22;32193;51.446;6.792;2022-11-03T13:39:53;15.80;99.90
46482;DHT22;32193;51.446;6.792;2022-11-03T13:49:37;16.20;99.90
46482;DHT22;32193;51.446;6.792;2022-11-03T14:04:14;16.30;99.90
46482;DHT22;32193;51.446;6.792;2022-11-03T14:11:32;15.70;99.90
46482;DHT22;32193;51.446;6.792;2022-11-03T14:14:16;15.90;99.90
46482;DHT22;32193;51.446;6.792;2022-11-03T14:16:41;15.70;99.90
46482;DHT22;32193;51.446;6.792;2022-11-03T14:19:07;16.10;99.90
46482;DHT22;32193;51.446;6.792;2022-11-03T14:24:02;15.40;99.90
46482;DHT22;32193;51.446;6.792;2022-11-03T14:36:12;15.70;99.90
46482;DHT22;32193;51.446;6.792;2022-11-03T14:38:37;15.80;99.90
46482;DHT22;32193;51.446;6.792;2022-11-03T14:41:03;15.80;99.90
46482;DHT22;32193;51.446;6.792;2022-11-03T14:43:47;15.60;99.90
46482;DHT22;32193;51.446;6.792;2022-11-03T14:48:39;15.60;99.90
46482;DHT22;32193;51.446;6.792;2022-11-03T14:51:04;15.20;99.90
46482;DHT22;32193;51.446;6.792;2022-11-03T14:55:57;15.20;99.90
46482;DHT22;32193;51.446;6.792;2022-11-03T15:00:49;15.20;99.90
46482;DHT22;32193;51.446;6.792;2022-11-03T15:08:14;15.00;99.90
46482;DHT22;32193;51.446;6.792;2022-11-03T15:18:01;14.90;99.90
46482;DHT22;32193;51.446;6.792;2022-11-03T15:22:53;14.60;99.90
46482;DHT22;32193;51.446;6.792;2022-11-03T15:25:18;14.90;99.90
46482;DHT22;32193;51.446;6.792;2022-11-03T15:27:44;14.50;99.90
46482;DHT22;32193;51.446;6.792;2022-11-03T15:30:10;13.90;99.90
46482;DHT22;32193;51.446;6.792;2022-11-03T15:32:36;14.00;99.90
46482;DHT22;32193;51.446;6.792;2022-11-03T15:39:53;14.30;99.90
46482;DHT22;32193;51.446;6.792;2022-11-03T15:52:03;13.90;99.90
46482;DHT22;32193;51.446;6.792;2022-11-03T15:56:54;13.40;99.90
46482;DHT22;32193;51.446;6.792;2022-11-03T15:59:20;14.10;99.90
46482;DHT22;32193;51.446;6.792;2022-11-03T16:04:11;13.60;99.90
46482;DHT22;32193;51.446;6.792;2022-11-03T16:06:37;13.60;99.90
46482;DHT22;32193;51.446;6.792;2022-11-03T16:13:55;13.00;99.90
46482;DHT22;32193;51.446;6.792;2022-11-03T16:18:47;13.00;99.90
46482;DHT22;32193;51.446;6.792;2022-11-03T16:28:33;13.00;99.90
46482;DHT22;32193;51.446;6.792;2022-11-03T16:30:59;13.20;99.90
46482;DHT22;32193;51.446;6.792;2022-11-03T16:33:24;12.90;99.90
46482;DHT22;32193;51.446;6.792;2022-11-03T16:40:42;13.20;99.90
46482;DHT22;32193;51.446;6.792;2022-11-03T16:48:00;12.70;99.90
46482;DHT22;32193;51.446;6.792;2022-11-03T16:55:19;12.90;99.90
46482;DHT22;32193;51.446;6.792;2022-11-03T16:57:45;12.80;99.90
46482;DHT22;32193;51.446;6.792;2022-11-03T17:00:16;13.00;99.90
46482;DHT22;32193;51.446;6.792;2022-11-03T17:02:42;13.10;99.90
46482;DHT22;32193;51.446;6.792;2022-11-03T17:05:09;12.80;99.90
46482;DHT22;32193;51.446;6.792;2022-11-03T17:07:35;12.60;99.90
46482;DHT22;32193;51.446;6.792;2022-11-03T17:10:02;12.90;99.90
46482;DHT22;32193;51.446;6.792;2022-11-03T17:14:54;13.50;99.90
46482;DHT22;32193;51.446;6.792;2022-11-03T17:19:45;13.30;99.90
46482;DHT22;32193;51.446;6.792;2022-11-03T17:24:37;13.10;99.90
46482;DHT22;32193;51.446;6.792;2022-11-03T17:27:17;13.20;99.90
46482;DHT22;32193;51.446;6.792;2022-11-03T17:29:47;13.80;99.90
46482;DHT22;32193;51.446;6.792;2022-11-03T17:32:25;12.80;99.90
46482;DHT22;32193;51.446;6.792;2022-11-03T17:34:53;13.00;99.90
46482;DHT22;32193;51.446;6.792;2022-11-03T17:37:20;12.70;99.90
46482;DHT22;32193;51.446;6.792;2022-11-03T17:42:16;13.10;99.90
46482;DHT22;32193;51.446;6.792;2022-11-03T17:44:43;13.20;99.90
46482;DHT22;32193;51.446;6.792;2022-11-03T17:49:34;12.70;99.90
46482;DHT22;32193;51.446;6.792;2022-11-03T17:52:00;13.50;99.90
46482;DHT22;32193;51.446;6.792;2022-11-03T17:54:27;13.10;99.90
46482;DHT22;32193;51.446;6.792;2022-11-03T17:56:57;12.90;99.90
46482;DHT22;32193;51.446;6.792;2022-11-03T17:59:24;13.00;99.90
46482;DHT22;32193;51.446;6.792;2022-11-03T18:06:42;12.80;99.90
46482;DHT22;32193;51.446;6.792;2022-11-03T18:09:09;13.50;99.90
46482;DHT22;32193;51.446;6.792;2022-11-03T18:11:37;13.20;99.90
46482;DHT22;32193;51.446;6.792;2022-11-03T18:14:23;13.00;99.90
46482;DHT22;32193;51.446;6.792;2022-11-03T18:16:50;13.00;99.90
46482;DHT22;32193;51.446;6.792;2022-11-03T18:21:43;13.30;99.90
46482;DHT22;32193;51.446;6.792;2022-11-03T18:24:11;13.10;99.90
46482;DHT22;32193;51.446;6.792;2022-11-03T18:26:37;13.40;99.90
46482;DHT22;32193;51.446;6.792;2022-11-03T18:29:03;13.20;99.90
46482;DHT22;32193;51.446;6.792;2022-11-03T18:31:43;13.30;99.90
46482;DHT22;32193;51.446;6.792;2022-11-03T18:34:23;13.50;99.90
46482;DHT22;32193;51.446;6.792;2022-11-03T18:36:50;13.10;99.90
46482;DHT22;32193;51.446;6.792;2022-11-03T18:39:27;13.20;99.90
46482;DHT22;32193;51.446;6.792;2022-11-03T18:41:53;13.10;99.90
46482;DHT22;32193;51.446;6.792;2022-11-03T18:44:23;13.70;99.90
46482;DHT22;32193;51.446;6.792;2022-11-03T18:46:50;13.30;99.90
46482;DHT22;32193;51.446;6.792;2022-11-03T18:49:17;13.40;99.90
46482;DHT22;32193;51.446;6.792;2022-11-03T18:51:55;13.40;99.90
46482;DHT22;32193;51.446;6.792;2022-11-03T18:54:23;12.90;99.90
46482;DHT22;32193;51.446;6.792;2022-11-03T18:56:51;13.20;99.90
46482;DHT22;32193;51.446;6.792;2022-11-03T19:01:48;13.10;99.90
46482;DHT22;32193;51.446;6.792;2022-11-03T19:04:14;13.70;99.90
46482;DHT22;32193;51.446;6.792;2022-11-03T19:06:44;13.20;99.90
46482;DHT22;32193;51.446;6.792;2022-11-03T19:09:15;13.50;99.90
46482;DHT22;32193;51.446;6.792;2022-11-03T19:11:44;13.80;99.90
46482;DHT22;32193;51.446;6.792;2022-11-03T19:14:24;13.40;99.90
46482;DHT22;32193;51.446;6.792;2022-11-03T19:16:52;13.60;99.90
46482;DHT22;32193;51.446;6.792;2022-11-03T19:19:18;13.10;99.90
46482;DHT22;32193;51.446;6.792;2022-11-03T19:21:44;13.10;99.90
46482;DHT22;32193;51.446;6.792;2022-11-03T19:24:10;13.30;99.90
46482;DHT22;32193;51.446;6.792;2022-11-03T19:26:43;13.30;99.90
46482;DHT22;32193;51.446;6.792;2022-11-03T19:29:13;13.40;99.90
46482;DHT22;32193;51.446;6.792;2022-11-03T19:31:43;13.40;99.90
46482;DHT22;32193;51.446;6.792;2022-11-03T19:34:22;13.60;99.90
46482;DHT22;32193;51.446;6.792;2022-11-03T19:36:50;13.30;99.90
46482;DHT22;32193;51.446;6.792;2022-11-03T19:39:29;13.30;99.90
46482;DHT22;32193;51.446;6.792;2022-11-03T19:41:58;13.00;99.90
46482;DHT22;32193;51.446;6.792;2022-11-03T19:44:43;13.30;99.90
46482;DHT22;32193;51.446;6.792;2022-11-03T19:47:14;13.30;99.90
46482;DHT22;32193;51.446;6.792;2022-11-03T19:52:08;13.30;99.90
46482;DHT22;32193;51.446;6.792;2022-11-03T19:54:36;13.20;99.90
46482;DHT22;32193;51.446;6.792;2022-11-03T19:59:27;12.80;99.90
46482;DHT22;32193;51.446;6.792;2022-11-03T20:01:53;13.00;99.90
46482;DHT22;32193;51.446;6.792;2022-11-03T20:09:16;13.00;99.90
46482;DHT22;32193;51.446;6.792;2022-11-03T20:11:43;13.00;99.90
46482;DHT22;32193;51.446;6.792;2022-11-03T20:14:15;13.00;99.90
46482;DHT22;32193;51.446;6.792;2022-11-03T20:16:41;13.30;99.90
46482;DHT22;32193;51.446;6.792;2022-11-03T20:19:07;13.30;99.90
46482;DHT22;32193;51.446;6.792;2022-11-03T20:21:33;13.40;99.90
46482;DHT22;32193;51.446;6.792;2022-11-03T20:23:59;13.60;99.90
46482;DHT22;32193;51.446;6.792;2022-11-03T20:26:25;13.20;99.90
46482;DHT22;32193;51.446;6.792;2022-11-03T20:28:53;13.20;99.90
46482;DHT22;32193;51.446;6.792;2022-11-03T20:31:19;13.10;99.90
46482;DHT22;32193;51.446;6.792;2022-11-03T20:33:45;13.70;99.90
46482;DHT22;32193;51.446;6.792;2022-11-03T20:36:15;13.10;99.90
46482;DHT22;32193;51.446;6.792;2022-11-03T20:38:46;13.00;99.90
46482;DHT22;32193;51.446;6.792;2022-11-03T20:41:13;12.60;99.90
46482;DHT22;32193;51.446;6.792;2022-11-03T20:43:42;13.20;99.90
46482;DHT22;32193;51.446;6.792;2022-11-03T20:46:23;13.10;99.90
46482;DHT22;32193;51.446;6.792;2022-11-03T20:48:49;13.20;99.90
46482;DHT22;32193;51.446;6.792;2022-11-03T20:51:17;13.40;99.90
46482;DHT22;32193;51.446;6.792;2022-11-03T20:53:44;13.40;99.90
46482;DHT22;32193;51.446;6.792;2022-11-03T20:56:18;13.60;99.90
46482;DHT22;32193;51.446;6.792;2022-11-03T20:58:44;13.20;99.90
46482;DHT22;32193;51.446;6.792;2022-11-03T21:01:23;13.50;99.90
46482;DHT22;32193;51.446;6.792;2022-11-03T21:03:50;13.50;99.90
46482;DHT22;32193;51.446;6.792;2022-11-03T21:06:17;13.30;99.90
46482;DHT22;32193;51.446;6.792;2022-11-03T21:08:44;13.20;99.90
46482;DHT22;32193;51.446;6.792;2022-11-03T21:11:15;13.20;99.90
46482;DHT22;32193;51.446;6.792;2022-11-03T21:14:04;13.50;99.90
46482;DHT22;32193;51.446;6.792;2022-11-03T21:16:32;13.20;99.90
46482;DHT22;32193;51.446;6.792;2022-11-03T21:19:19;13.40;99.90
46482;DHT22;32193;51.446;6.792;2022-11-03T21:22:21;13.60;99.90
46482;DHT22;32193;51.446;6.792;2022-11-03T21:24:47;13.60;99.90